Новый

СКИДКИ НА СМАРТФОНЫ!

Карта отелей и гостиниц, располагающихся рядом с аэропортом Новый :

Новый
Хабаровск
Хабаровский край 48° 31' 41.9988" N, 135° 11' 17.9412" E
Код аэродрома ИКАО
UHHH
Код аэродрома RU
УХХХ
Координаты
N48.52833° E135.18832°
Превышение над уровнем моря
74
Основная полоса
05R/23L
Курс магнитный
053,8/233,8
Длина основной ВПП
4000
Ширина основной ВПП
60
Покрытие основной ВПП
Твёрдое
Освещение ВПП
Постоянное
Тип: 
Аэродром
Класс аэродрома: 
Международный
Принадлежность: 
ГА
Статус: 
Действующий
Сайт: 
http://www.airkhv.ru/
Страна: 
Россия
Регион: 
Хабаровский край
Город: 
Хабаровск
Дополнительная информация: 
Военный индекс: ЬХХХ/XHHH. Оператор: ОАО «Хабаровский аэропорт». Нкр.=(600)м.
Схемы аэропортов: 
Погода: 

Авиационная погода в аэропорту Новый

Регион: 
Погода METAR: 
UHHH 250400Z 21004MPS 180V260 9999 FEW020 18/10 Q1012 R23R/090060 NOSIG RMK QFE753/1004
Время наблюдения
2022-09-25T04:00:00Z
Температура C
18.0
Точка росы
10.0
Направление ветра
210
Скорость ветра (узлы)
8
Метео видимость
6.21
Облачность
FEW
Нижняя граница облачности (футы)
2000
Явления погоды
Условия полета
VFR
Аэропорт подробнее: 
FEW – незначительная облачность;

Скидки на навигаторы!

Найти трансфер

С помощью этой формы Вы можете найти трансфер из аэропорта Новый в город, аэропорт или вокзал:

Погода в аэропортах:

Авиационная погода в аэропорту Алыкель

Регион: 
Погода METAR: 
UOOO 250400Z 02011MPS 9999 DRSN SCT008 BKN044 M03/M03 Q1012 R01/31//60 NOSIG RMK QFE745/0993
Время наблюдения
2022-09-25T04:00:00Z
Температура C
-3.0
Точка росы
-3.0
Направление ветра
20
Скорость ветра (узлы)
21
Метео видимость
6.21
Облачность
SCT
BKN
Нижняя граница облачности (футы)
800
4400
Явления погоды
DRSN
Условия полета
VFR
Аэропорт подробнее: 
SCT – разбросанная отдельная облачность; BKN – значительная (рассеянная, разорванная) облачность;
DRSN – снежный позёмок;

Авиационная погода в Храброво

Регион: 
Погода METAR: 
UMKK 250400Z 11001MPS 4400 BR MIFG NSC 08/08 Q1014 R24/CLRD95 NOSIG RMK QFE759/1013
Время наблюдения
2022-09-25T04:00:00Z
Температура C
8.0
Точка росы
8.0
Направление ветра
110
Скорость ветра (узлы)
2
Метео видимость
2.73
Облачность
CLR
Нижняя граница облачности (футы)
Явления погоды
BR MIFG
Условия полета
IFR
Аэропорт подробнее: 
CLR — нет облаков ниже 3000 м
MIFG - туман поземный; BR – дымка (видимость от 1 до 9 км);

Авиационная погода в Елизово

Регион: 
Погода METAR: 
UHPP 250400Z 33002MPS 7000 -SHRA BKN004 OVC020CB 08/08 Q1008 R34L/290250 NOSIG RMK MT OBSC QFE752/1003
Время наблюдения
2022-09-25T04:00:00Z
Температура C
8.0
Точка росы
8.0
Направление ветра
330
Скорость ветра (узлы)
4
Метео видимость
4.35
Облачность
BKN
OVC
Нижняя граница облачности (футы)
400
2000
Явления погоды
-SHRA
Условия полета
LIFR
Аэропорт подробнее: 
BKN – значительная (рассеянная, разорванная) облачность; OVC – сплошная облачность;
-SHRA - слабый ливневой дождь;

Авиационная погода в Курске

Погода METAR: 
UUOK 250400Z 31006MPS 9999 -RA OVC030 07/06 Q1005 R30/290050 NOSIG RMK QFE735/0980
Время наблюдения
2022-09-25T04:00:00Z
Температура C
7.0
Точка росы
6.0
Направление ветра
310
Скорость ветра (узлы)
12
Метео видимость
6.21
Облачность
OVC
Нижняя граница облачности (футы)
3000
Явления погоды
-RA
Условия полета
MVFR
Аэропорт подробнее: 
OVC – сплошная облачность;
-RA - слабый дождь;